Time;durP1;ratioP1;P1;durP2;ratioP2;P2;SDS_P1;SDS_P2;PMS_P1;PMS_P2;Temp;Humidity;BMP_temperature;BMP_pressure;BME280_temperature;BME280_humidity;BME280_pressure;Samples;Min_cycle;Max_cycle;Signal;HPM_P1;HPM_P2
2021/04/03 00:00:35;;;;;;;11.10;7.53;;;;;;;16.29;58.61;99208.09;5055919;28;20033;-50
2021/04/03 00:03:01;;;;;;;11.10;7.03;;;;;;;16.38;58.29;99203.09;5055706;28;20029;-52
2021/04/03 00:05:26;;;;;;;13.32;7.20;;;;;;;16.02;59.60;99198.16;5056101;28;20029;-53
2021/04/03 00:07:52;;;;;;;10.70;7.07;;;;;;;15.84;59.88;99190.47;5055713;28;20060;-51
2021/04/03 00:10:21;;;;;;;11.63;7.05;;;;;;;15.92;60.17;99192.69;5055614;28;20028;-51
2021/04/03 00:12:47;;;;;;;10.05;6.88;;;;;;;15.88;59.38;99186.22;5055551;28;20453;-53
2021/04/03 00:15:12;;;;;;;10.77;7.05;;;;;;;15.75;59.87;99191.97;5055473;28;20056;-53
2021/04/03 00:17:38;;;;;;;9.80;6.53;;;;;;;15.78;59.29;99181.56;5055718;28;20091;-49
2021/04/03 00:20:07;;;;;;;11.20;7.00;;;;;;;15.55;60.39;99182.56;5055715;28;20079;-48
2021/04/03 00:22:33;;;;;;;9.65;6.82;;;;;;;15.66;59.31;99180.84;5055747;28;20453;-49
2021/04/03 00:24:58;;;;;;;8.30;6.40;;;;;;;15.72;58.61;99176.34;5055963;28;20029;-49
2021/04/03 00:27:24;;;;;;;10.43;5.90;;;;;;;16.22;57.77;99176.09;5055523;28;20465;-51
2021/04/03 00:29:49;;;;;;;9.77;6.45;;;;;;;16.19;57.15;99184.66;5055292;28;20428;-49
2021/04/03 00:32:15;;;;;;;10.90;6.30;;;;;;;16.17;58.30;99173.38;5054264;28;20020;-51
2021/04/03 00:34:40;;;;;;;11.02;6.15;;;;;;;16.22;57.37;99176.09;5051966;28;20490;-49
2021/04/03 00:37:05;;;;;;;10.40;6.00;;;;;;;16.05;57.69;99169.19;5052425;28;20325;-51
2021/04/03 00:39:31;;;;;;;9.02;6.00;;;;;;;15.80;58.30;99170.56;5053019;28;20060;-52
2021/04/03 00:41:56;;;;;;;9.80;6.38;;;;;;;15.57;58.91;99160.88;5053103;28;20108;-50
2021/04/03 00:44:22;;;;;;;9.20;6.22;;;;;;;15.34;59.57;99153.91;5052931;28;20020;-52
2021/04/03 00:46:47;;;;;;;9.95;6.38;;;;;;;15.32;59.83;99161.38;5053009;28;20488;-48
2021/04/03 00:49:13;;;;;;;9.52;5.70;;;;;;;15.70;58.65;99157.81;5052789;28;20107;-49
2021/04/03 00:51:39;;;;;;;11.90;5.93;;;;;;;15.47;59.32;99145.47;5053182;28;20074;-51
2021/04/03 00:54:06;;;;;;;8.38;6.00;;;;;;;15.77;58.96;99146.94;5052705;28;20480;-48
2021/04/03 00:56:31;;;;;;;7.97;5.97;;;;;;;15.75;59.34;99141.00;5051202;28;20039;-48
2021/04/03 00:58:57;;;;;;;10.27;5.93;;;;;;;15.79;58.83;99137.56;5051365;28;20441;-50
2021/04/03 01:01:22;;;;;;;9.90;6.50;;;;;;;15.78;59.18;99140.50;5052886;28;20040;-51
2021/04/03 01:03:48;;;;;;;10.25;6.45;;;;;;;15.71;59.45;99139.88;5052862;28;20052;-48
2021/04/03 01:06:13;;;;;;;9.70;5.97;;;;;;;15.87;58.92;99135.50;5052791;28;20029;-50
2021/04/03 01:08:39;;;;;;;10.82;6.68;;;;;;;15.35;60.19;99134.09;5052099;28;20144;-51
2021/04/03 01:11:05;;;;;;;10.82;6.22;;;;;;;15.43;59.97;99129.09;5052453;28;20025;-51
2021/04/03 01:13:54;;;;;;;10.10;6.03;;;;;;;15.67;59.35;99141.41;5051512;28;20531;-51
2021/04/03 01:16:28;;;;;;;9.90;6.43;;;;;;;15.80;58.91;99133.00;5051149;28;20068;-52
2021/04/03 01:18:59;;;;;;;10.13;6.65;;;;;;;15.96;58.31;99132.09;5052280;28;20021;-50
2021/04/03 01:21:39;;;;;;;8.13;5.90;;;;;;;16.06;57.69;99134.06;5050756;28;20036;-51
2021/04/03 01:24:23;;;;;;;10.38;5.90;;;;;;;15.59;59.04;99131.94;5052283;28;20024;-49
2021/04/03 01:27:16;;;;;;;9.02;5.65;;;;;;;15.98;57.84;99124.59;5051993;28;20032;-50
2021/04/03 01:30:15;;;;;;;10.30;6.35;;;;;;;16.14;57.39;99119.38;5052250;28;20048;-51
2021/04/03 01:32:48;;;;;;;8.75;5.78;;;;;;;16.04;57.07;99117.41;5051079;28;20032;-51
2021/04/03 01:35:17;;;;;;;8.85;6.15;;;;;;;16.13;56.77;99117.78;5051919;28;20040;-52
2021/04/03 01:37:49;;;;;;;8.32;5.65;;;;;;;16.14;56.38;99109.44;5029199;28;20410;-50
2021/04/03 01:40:16;;;;;;;9.25;6.15;;;;;;;16.34;55.33;99116.06;5051491;28;20056;-53
2021/04/03 01:42:42;;;;;;;8.43;5.85;;;;;;;16.38;56.05;99114.47;5034387;28;20036;-52
2021/04/03 01:45:08;;;;;;;11.18;7.07;;;;;;;16.39;55.53;99108.88;5034061;28;20017;-51
2021/04/03 01:47:34;;;;;;;9.98;6.45;;;;;;;16.53;55.56;99103.84;5049861;28;20021;-48
2021/04/03 01:50:00;;;;;;;10.88;6.50;;;;;;;16.53;55.19;99100.38;5050051;28;20021;-50
2021/04/03 01:52:30;;;;;;;10.43;6.70;;;;;;;16.54;54.77;99101.97;5033796;28;20024;-53
2021/04/03 01:54:57;;;;;;;10.77;6.25;;;;;;;16.56;54.64;99089.91;5050264;28;20024;-52
2021/04/03 01:57:28;;;;;;;11.07;6.50;;;;;;;16.75;54.38;99094.84;5033818;28;20098;-52
2021/04/03 01:59:53;;;;;;;10.98;6.25;;;;;;;16.66;54.33;99082.97;5051311;28;20115;-52
2021/04/03 02:02:19;;;;;;;9.57;6.30;;;;;;;16.41;55.36;99095.16;5050373;28;20021;-51
2021/04/03 02:04:44;;;;;;;11.77;6.30;;;;;;;16.56;54.86;99094.47;5051696;28;20021;-50
2021/04/03 02:07:20;;;;;;;13.18;6.57;;;;;;;16.66;54.51;99089.16;5050156;28;20377;-52
2021/04/03 02:09:46;;;;;;;9.10;6.25;;;;;;;16.67;54.42;99079.22;5049950;28;20392;-50
2021/04/03 02:12:12;;;;;;;8.63;6.05;;;;;;;16.65;54.59;99076.78;5049863;28;20021;-51
2021/04/03 02:14:37;;;;;;;9.30;6.28;;;;;;;16.68;54.49;99076.28;5049876;28;20040;-50
2021/04/03 02:17:05;;;;;;;9.40;6.68;;;;;;;16.83;54.22;99077.47;5033288;28;20025;-51
2021/04/03 02:19:30;;;;;;;9.40;6.65;;;;;;;16.79;54.36;99075.28;5051298;28;20030;-52
2021/04/03 02:21:55;;;;;;;10.15;6.63;;;;;;;16.95;53.78;99078.06;5048163;28;20029;-51
2021/04/03 02:24:21;;;;;;;9.13;6.22;;;;;;;17.06;53.98;99077.06;5029542;28;20045;-50
2021/04/03 02:26:46;;;;;;;9.70;6.38;;;;;;;17.05;53.48;99082.69;5046868;28;20469;-53
2021/04/03 02:29:12;;;;;;;8.57;6.30;;;;;;;16.97;54.02;99073.25;5050110;28;20123;-49
2021/04/03 02:31:37;;;;;;;10.70;7.00;;;;;;;16.91;54.50;99072.41;5049546;28;20537;-52
2021/04/03 02:34:03;;;;;;;9.50;7.00;;;;;;;16.92;53.80;99073.22;5051037;28;20017;-53
2021/04/03 02:36:28;;;;;;;10.55;6.68;;;;;;;16.94;53.80;99074.56;5050269;28;20029;-51
2021/04/03 02:38:54;;;;;;;9.77;7.03;;;;;;;16.96;53.62;99068.94;5050071;28;20544;-51
2021/04/03 02:41:43;;;;;;;9.13;6.72;;;;;;;16.91;54.16;99075.09;5049876;28;20029;-49
2021/04/03 02:44:14;;;;;;;10.05;7.05;;;;;;;16.68;53.85;99076.28;5033170;28;20029;-49
2021/04/03 02:46:44;;;;;;;10.35;7.15;;;;;;;16.54;54.59;99081.28;5049445;28;20051;-49
2021/04/03 02:49:15;;;;;;;12.73;6.97;;;;;;;16.68;54.74;99092.41;5032831;28;20067;-49
2021/04/03 02:51:43;;;;;;;14.90;7.22;;;;;;;16.66;54.47;99086.50;5050482;28;20116;-50
2021/04/03 02:54:09;;;;;;;10.88;7.15;;;;;;;16.78;53.94;99081.72;5048742;28;20021;-52
2021/04/03 02:56:37;;;;;;;11.73;7.35;;;;;;;16.83;54.80;99082.81;5031711;28;20028;-52
2021/04/03 02:59:03;;;;;;;8.68;7.07;;;;;;;16.71;54.17;99083.00;5048940;28;20021;-52
2021/04/03 03:01:28;;;;;;;11.15;7.40;;;;;;;16.84;54.98;99085.25;5048916;28;20025;-51
2021/04/03 03:03:54;;;;;;;12.20;7.70;;;;;;;16.54;55.50;99078.59;5049099;28;20087;-51
2021/04/03 03:06:19;;;;;;;10.57;7.40;;;;;;;16.06;56.19;99080.41;5049038;28;20033;-49
2021/04/03 03:08:45;;;;;;;12.70;7.97;;;;;;;16.06;56.49;99082.28;5050418;28;20489;-51
2021/04/03 03:11:10;;;;;;;12.80;8.57;;;;;;;15.88;56.45;99078.06;5032467;28;20489;-48
2021/04/03 03:13:36;;;;;;;12.95;8.18;;;;;;;16.13;55.70;99081.00;5032252;28;20029;-50
2021/04/03 03:16:02;;;;;;;11.75;8.27;;;;;;;16.09;55.88;99066.47;5050241;28;20029;-49
2021/04/03 03:18:28;;;;;;;13.25;8.00;;;;;;;16.47;54.88;99071.84;5032362;28;20032;-49
2021/04/03 03:20:53;;;;;;;11.18;7.90;;;;;;;16.03;55.04;99048.72;5028642;28;20209;-51
2021/04/03 03:23:18;;;;;;;10.95;8.20;;;;;;;16.51;54.48;99064.91;5027920;28;20036;-51
2021/04/03 03:25:44;;;;;;;11.95;8.68;;;;;;;16.55;54.43;99066.00;5045707;28;20127;-49
2021/04/03 03:28:10;;;;;;;14.05;8.35;;;;;;;16.59;53.97;99067.09;5030239;28;20021;-51
2021/04/03 03:30:35;;;;;;;11.80;8.30;;;;;;;16.55;54.69;99066.81;5028839;28;20017;-50
2021/04/03 03:33:01;;;;;;;12.15;8.10;;;;;;;16.51;54.39;99065.69;5029096;28;20071;-50
2021/04/03 03:35:26;;;;;;;11.63;8.35;;;;;;;16.48;54.68;99066.22;5029008;28;20053;-52
2021/04/03 03:37:53;;;;;;;10.65;8.38;;;;;;;16.42;54.75;99067.25;5045563;28;20465;-50
2021/04/03 03:40:18;;;;;;;11.55;8.13;;;;;;;16.51;53.93;99056.84;5028896;28;20032;-51
2021/04/03 03:42:46;;;;;;;11.32;7.63;;;;;;;16.53;54.30;99062.75;5045502;28;20022;-49
2021/04/03 03:45:11;;;;;;;11.77;8.20;;;;;;;16.63;54.24;99064.69;5030359;28;20033;-51
2021/04/03 03:47:37;;;;;;;10.30;7.68;;;;;;;16.73;53.51;99067.44;5030338;28;20037;-50
2021/04/03 03:50:04;;;;;;;10.43;8.00;;;;;;;16.54;54.75;99070.53;5029849;28;20017;-50
2021/04/03 03:52:30;;;;;;;10.85;8.48;;;;;;;16.67;53.42;99068.47;5033696;28;20107;-52
2021/04/03 03:54:55;;;;;;;11.63;8.18;;;;;;;16.59;53.35;99070.59;5050199;28;20033;-49
2021/04/03 03:57:21;;;;;;;12.48;8.38;;;;;;;16.39;54.03;99076.63;5049818;28;20078;-50
2021/04/03 03:59:46;;;;;;;13.02;8.05;;;;;;;16.30;54.54;99077.38;5049732;28;20470;-49
2021/04/03 04:02:12;;;;;;;13.25;8.30;;;;;;;16.36;54.46;99079.84;5049870;28;20025;-51
2021/04/03 04:04:37;;;;;;;11.77;8.10;;;;;;;16.28;54.19;99087.53;5049830;28;20029;-50
2021/04/03 04:07:03;;;;;;;12.00;7.70;;;;;;;16.42;53.70;99089.53;5049794;28;20044;-51
2021/04/03 04:09:29;;;;;;;10.57;8.02;;;;;;;16.54;53.45;99086.66;5052859;28;20076;-52
2021/04/03 04:11:55;;;;;;;11.25;8.43;;;;;;;16.35;54.15;99083.56;5053684;28;20028;-52
2021/04/03 04:14:20;;;;;;;11.07;7.85;;;;;;;16.50;53.59;99092.81;5053601;28;20107;-50
2021/04/03 04:16:46;;;;;;;14.32;7.45;;;;;;;16.51;53.27;99087.19;5053381;28;20037;-52
2021/04/03 04:19:11;;;;;;;9.38;7.20;;;;;;;16.63;58.32;99099.63;5053573;28;20055;-52
2021/04/03 04:21:37;;;;;;;11.57;7.20;;;;;;;16.96;55.62;99093.09;5053381;28;20131;-52
2021/04/03 04:24:03;;;;;;;8.65;6.78;;;;;;;17.03;56.05;99093.69;5053456;28;20441;-51
2021/04/03 04:26:28;;;;;;;8.68;6.85;;;;;;;17.14;55.09;99095.34;5053438;28;20033;-49
2021/04/03 04:28:53;;;;;;;8.43;6.57;;;;;;;17.39;55.56;99088.47;5053235;28;20019;-52
2021/04/03 04:31:19;;;;;;;9.30;7.13;;;;;;;16.66;53.34;99097.22;5053396;28;20086;-52
2021/04/03 04:33:44;;;;;;;8.27;6.63;;;;;;;15.99;54.62;99102.09;5053146;28;20055;-53
2021/04/03 04:36:10;;;;;;;10.60;7.13;;;;;;;15.24;56.29;99093.75;5053264;28;20036;-52
2021/04/03 04:38:35;;;;;;;9.55;6.97;;;;;;;14.93;57.75;99094.44;5052304;28;20461;-50
2021/04/03 04:41:01;;;;;;;9.80;7.25;;;;;;;14.75;58.75;99093.63;5052987;28;20032;-53
2021/04/03 04:43:26;;;;;;;9.13;6.82;;;;;;;15.68;56.25;99078.66;5052708;28;20029;-52
2021/04/03 04:45:52;;;;;;;9.32;7.18;;;;;;;14.97;57.55;99095.56;5052522;28;20048;-50
2021/04/03 04:48:18;;;;;;;12.18;7.65;;;;;;;14.81;58.11;99099.88;5052563;28;20064;-52
2021/04/03 04:50:43;;;;;;;9.90;7.45;;;;;;;14.70;59.35;99108.81;5052515;28;20064;-49
2021/04/03 04:53:09;;;;;;;12.70;7.22;;;;;;;14.59;60.18;99103.31;5052386;28;20067;-51
2021/04/03 04:55:34;;;;;;;10.60;7.78;;;;;;;15.84;56.85;99101.94;5052210;28;20029;-49
2021/04/03 04:58:00;;;;;;;9.30;7.65;;;;;;;15.50;56.25;99101.25;5052459;28;20467;-52
2021/04/03 05:00:25;;;;;;;12.02;7.93;;;;;;;15.15;57.69;99103.28;5052147;28;20037;-50
2021/04/03 05:02:51;;;;;;;11.18;7.90;;;;;;;14.93;58.14;99103.28;5052452;28;20092;-51
2021/04/03 05:05:16;;;;;;;11.20;7.78;;;;;;;14.73;58.49;99105.66;5053030;28;20059;-50
2021/04/03 05:07:42;;;;;;;9.82;6.88;;;;;;;15.96;56.72;99113.31;5051889;28;20413;-51
2021/04/03 05:10:07;;;;;;;11.65;8.65;;;;;;;15.71;55.69;99099.63;5052084;28;20043;-50
2021/04/03 05:12:34;;;;;;;10.75;7.78;;;;;;;15.13;57.32;99105.38;5052146;28;20049;-51
2021/04/03 05:14:59;;;;;;;23.05;13.93;;;;;;;14.41;59.35;99101.69;5052015;28;20029;-50
2021/04/03 05:17:25;;;;;;;44.55;29.40;;;;;;;14.90;58.95;99108.31;5052225;28;20082;-50
2021/04/03 05:19:50;;;;;;;24.92;14.40;;;;;;;15.38;56.15;99102.22;5051108;28;20451;-51
2021/04/03 05:22:16;;;;;;;50.78;31.13;;;;;;;14.76;58.42;99100.63;5051552;28;20570;-51
2021/04/03 05:24:41;;;;;;;50.72;31.35;;;;;;;14.42;59.27;99105.97;5051513;28;20082;-51
2021/04/03 05:27:07;;;;;;;18.17;10.88;;;;;;;14.45;59.93;99102.81;5051187;28;20032;-51
2021/04/03 05:29:32;;;;;;;14.23;8.35;;;;;;;15.29;57.55;99102.91;5051125;28;20130;-49
2021/04/03 05:31:58;;;;;;;16.65;7.70;;;;;;;15.08;57.37;99100.00;5051020;28;20067;-50
2021/04/03 05:34:23;;;;;;;14.18;8.02;;;;;;;14.87;58.12;99101.59;5051119;28;20029;-52
2021/04/03 05:36:49;;;;;;;12.13;7.97;;;;;;;15.22;57.62;99103.91;5051020;28;20083;-50
2021/04/03 05:39:14;;;;;;;14.02;8.30;;;;;;;15.58;55.69;99109.69;5050984;28;20036;-51
2021/04/03 05:41:40;;;;;;;19.90;9.73;;;;;;;15.24;56.91;99103.66;5051105;28;20043;-51
2021/04/03 05:44:05;;;;;;;51.17;32.25;;;;;;;15.17;57.31;99106.53;5051021;28;20028;-49
2021/04/03 05:46:31;;;;;;;20.30;12.27;;;;;;;15.71;55.47;99110.38;5050664;28;20098;-52
2021/04/03 05:48:58;;;;;;;13.45;8.27;;;;;;;15.38;57.17;99104.91;5051163;28;20036;-49
2021/04/03 05:51:23;;;;;;;15.30;8.48;;;;;;;15.07;57.30;99098.34;5048005;28;20045;-51
2021/04/03 05:53:49;;;;;;;15.57;8.90;;;;;;;16.14;54.53;99111.31;5029179;28;20529;-50
2021/04/03 05:56:14;;;;;;;16.15;9.05;;;;;;;15.78;56.31;99110.97;5030867;28;20025;-53
2021/04/03 05:58:40;;;;;;;17.73;9.73;;;;;;;15.48;57.00;99112.25;5030254;28;20025;-50
2021/04/03 06:01:06;;;;;;;14.77;9.02;;;;;;;15.75;55.95;99115.00;5029503;28;20029;-49
2021/04/03 06:03:32;;;;;;;18.77;9.18;;;;;;;15.88;55.96;99104.91;5030028;28;20060;-52
2021/04/03 06:05:57;;;;;;;14.73;8.73;;;;;;;15.49;56.95;99099.66;5028832;28;20522;-50
2021/04/03 06:08:23;;;;;;;18.88;8.93;;;;;;;15.20;57.72;99114.06;5027988;28;20062;-49
2021/04/03 06:11:22;;;;;;;21.65;8.90;;;;;;;16.15;54.86;99105.72;5022017;28;20423;-50
2021/04/03 06:13:57;;;;;;;14.38;9.25;;;;;;;15.91;55.71;99109.78;5043834;28;20763;-52
2021/04/03 06:16:38;;;;;;;17.13;9.50;;;;;;;15.58;56.35;99111.56;5033308;28;20103;-52
2021/04/03 06:19:13;;;;;;;26.77;12.20;;;;;;;16.63;54.59;99115.75;5050249;28;20033;-51
2021/04/03 06:21:40;;;;;;;43.75;20.73;;;;;;;16.51;53.97;99113.25;5039076;28;20017;-50
2021/04/03 06:24:25;;;;;;;21.33;11.90;;;;;;;16.27;54.70;99116.28;5037786;28;20021;-50
2021/04/03 06:27:06;;;;;;;20.23;11.60;;;;;;;16.72;53.26;99115.00;5040618;28;20075;-51
2021/04/03 06:29:38;;;;;;;18.27;9.48;;;;;;;17.04;52.68;99107.94;5040566;28;20365;-49
2021/04/03 06:32:04;;;;;;;19.55;10.82;;;;;;;16.88;53.48;99123.97;5039306;28;20033;-52
2021/04/03 06:34:37;;;;;;;22.92;11.38;;;;;;;16.91;53.60;99120.78;5038265;28;20025;-49
2021/04/03 06:37:04;;;;;;;20.80;11.43;;;;;;;17.72;51.76;99111.41;5039139;28;20013;-50
2021/04/03 06:39:30;;;;;;;19.35;10.27;;;;;;;16.90;53.26;99110.28;5038922;28;20075;-51
2021/04/03 06:41:55;;;;;;;15.98;9.48;;;;;;;16.75;52.86;99111.81;5036216;28;20021;-50
2021/04/03 06:44:22;;;;;;;12.98;9.20;;;;;;;17.76;51.19;99109.81;5039212;28;20020;-52
2021/04/03 06:46:47;;;;;;;16.80;9.40;;;;;;;18.41;49.85;99117.44;5040388;28;20121;-52
2021/04/03 06:49:13;;;;;;;12.18;8.43;;;;;;;17.63;50.94;99107.63;5038122;28;20017;-49
2021/04/03 06:51:39;;;;;;;15.90;9.68;;;;;;;17.08;51.77;99084.88;5039379;28;20200;-51
2021/04/03 06:54:06;;;;;;;16.95;9.43;;;;;;;18.08;50.36;99108.00;5039511;28;20010;-50
2021/04/03 06:56:34;;;;;;;16.15;8.18;;;;;;;18.74;46.75;99102.56;5037966;28;20455;-51
2021/04/03 06:59:06;;;;;;;18.75;8.95;;;;;;;17.61;49.53;99112.47;5037612;28;20474;-52
2021/04/03 07:01:55;;;;;;;18.23;9.05;;;;;;;17.83;49.94;99108.75;5039754;28;20059;-51
2021/04/03 07:04:27;;;;;;;13.27;8.80;;;;;;;18.66;47.87;99113.09;5039033;28;20029;-52
2021/04/03 07:06:56;;;;;;;14.73;9.85;;;;;;;19.46;46.35;99115.03;5037672;28;20033;-52
2021/04/03 07:09:22;;;;;;;16.38;9.98;;;;;;;18.65;47.77;99114.97;5038221;28;20045;-49
2021/04/03 07:11:49;;;;;;;22.73;12.70;;;;;;;18.20;49.57;99113.13;5041466;28;20425;-51
2021/04/03 07:14:19;;;;;;;27.48;16.65;;;;;;;19.06;47.78;99106.03;5038879;28;20013;-51
2021/04/03 07:16:44;;;;;;;;;;;;;;;19.06;47.27;99108.72;5035576;28;20010;-52
2021/04/03 07:19:11;;;;;;;21.42;13.60;;;;;;;18.59;48.54;99112.56;5027753;28;19936;-53
2021/04/03 07:21:36;;;;;;;24.13;12.38;;;;;;;17.85;50.52;99110.13;5033131;28;20025;-52
2021/04/03 07:24:02;;;;;;;21.10;12.43;;;;;;;18.75;49.60;99114.97;5049541;28;20057;-54
2021/04/03 07:26:27;;;;;;;16.80;11.05;;;;;;;18.90;48.54;99103.34;5031377;28;20568;-50
2021/04/03 07:28:53;;;;;;;14.50;10.02;;;;;;;18.09;50.73;99107.75;5047676;28;20021;-49
2021/04/03 07:31:37;;;;;;;18.10;9.88;;;;;;;18.07;50.95;99101.81;5048289;28;20025;-49
2021/04/03 07:34:02;;;;;;;15.88;10.18;;;;;;;18.67;49.94;99096.66;5047932;28;20040;-51
2021/04/03 07:36:38;;;;;;;16.98;10.88;;;;;;;18.53;49.73;99099.09;5048662;28;20036;-52
2021/04/03 07:39:25;;;;;;;26.85;15.25;;;;;;;18.26;50.69;99096.72;5048976;28;20025;-50
2021/04/03 07:41:51;;;;;;;48.88;31.40;;;;;;;18.64;50.34;99097.22;5049481;28;20330;-50
2021/04/03 07:44:16;;;;;;;18.02;11.48;;;;;;;19.22;48.68;99094.09;5052970;28;20041;-49
2021/04/03 07:46:46;;;;;;;17.83;10.80;;;;;;;18.96;50.33;99093.38;5052795;28;20413;-51
2021/04/03 07:49:33;;;;;;;22.25;11.10;;;;;;;19.24;50.06;99101.91;5052547;28;20021;-52
2021/04/03 07:51:59;;;;;;;17.35;11.20;;;;;;;20.44;47.06;99101.69;5049625;28;20043;-50
2021/04/03 07:54:28;;;;;;;17.85;10.95;;;;;;;20.02;47.00;99100.44;5041133;28;20021;-52
2021/04/03 07:56:59;;;;;;;15.95;10.23;;;;;;;19.39;48.80;99092.94;5040815;28;20048;-53
2021/04/03 07:59:48;;;;;;;18.80;10.25;;;;;;;20.75;46.45;99099.53;5043325;28;20060;-53
2021/04/03 08:02:14;;;;;;;36.45;22.23;;;;;;;21.24;44.80;99098.44;5026647;28;20044;-50
2021/04/03 08:04:40;;;;;;;36.17;23.98;;;;;;;20.86;45.41;99102.94;5032414;28;20099;-51
2021/04/03 08:07:05;;;;;;;18.60;12.70;;;;;;;21.18;43.80;99099.59;5032212;28;20029;-39
2021/04/03 08:09:32;;;;;;;18.35;12.10;;;;;;;21.99;42.07;99085.25;5035359;28;20468;-38
2021/04/03 08:11:57;;;;;;;15.35;9.70;;;;;;;21.47;42.41;99101.44;5044844;28;20126;-38
2021/04/03 08:14:24;;;;;;;17.70;9.93;;;;;;;21.14;43.01;99093.16;5042781;28;20032;-39
2021/04/03 08:16:49;;;;;;;16.48;9.27;;;;;;;22.62;41.62;99089.41;5039205;28;20025;-38
2021/04/03 08:19:15;;;;;;;15.75;9.80;;;;;;;23.48;39.89;99093.44;5042843;28;20036;-38
2021/04/03 08:21:45;;;;;;;15.60;9.75;;;;;;;22.53;41.84;99088.47;5026271;28;20029;-38
2021/04/03 08:24:13;;;;;;;15.98;9.38;;;;;;;22.63;40.64;99093.69;5042195;28;20055;-38
2021/04/03 08:26:40;;;;;;;12.32;9.05;;;;;;;23.46;39.18;99082.88;5041598;28;20033;-37
2021/04/03 08:29:05;;;;;;;11.40;8.30;;;;;;;23.01;39.19;99086.19;5043587;28;20017;-38
2021/04/03 08:31:33;;;;;;;13.13;9.43;;;;;;;22.62;40.61;99083.97;5043775;28;20146;-39
2021/04/03 08:34:00;;;;;;;14.15;8.68;;;;;;;23.22;39.50;99077.66;5048208;28;20019;-39
2021/04/03 08:36:29;;;;;;;14.43;7.70;;;;;;;23.94;37.07;99086.97;5041022;28;20044;-39
2021/04/03 08:38:55;;;;;;;12.00;7.22;;;;;;;23.73;36.86;99084.69;5042944;28;20013;-39
2021/04/03 08:41:22;;;;;;;15.15;8.15;;;;;;;23.60;37.80;99077.38;5044828;28;20210;-39
2021/04/03 08:43:48;;;;;;;20.98;10.35;;;;;;;23.99;38.28;99078.72;5038682;28;20029;-38
2021/04/03 08:46:14;;;;;;;23.65;14.30;;;;;;;24.37;36.07;99078.31;5049587;28;20017;-39
2021/04/03 08:48:44;;;;;;;9.05;6.03;;;;;;;24.02;35.49;99071.84;5051657;28;20024;-39
2021/04/03 08:51:10;;;;;;;8.35;6.03;;;;;;;23.99;36.24;99070.56;5048114;28;20393;-39
2021/04/03 08:53:39;;;;;;;9.98;5.72;;;;;;;24.96;33.77;99073.50;5043920;28;20021;-39
2021/04/03 08:56:05;;;;;;;9.23;5.90;;;;;;;24.05;35.83;99073.97;5043007;28;20477;-39
2021/04/03 08:58:31;;;;;;;10.38;5.90;;;;;;;23.38;36.88;99075.41;5049397;28;20031;-38
2021/04/03 09:00:56;;;;;;;10.65;5.97;;;;;;;24.01;36.25;99068.34;5058413;28;20032;-37
2021/04/03 09:03:22;;;;;;;8.73;5.80;;;;;;;23.94;35.67;99057.88;5048982;28;20102;-38
2021/04/03 09:05:48;;;;;;;10.93;6.28;;;;;;;23.02;37.69;99068.03;5049945;28;20497;-39
2021/04/03 09:08:24;;;;;;;8.57;5.75;;;;;;;23.23;36.79;99060.28;5049784;28;20040;-39
2021/04/03 09:10:56;;;;;;;22.80;13.35;;;;;;;23.23;36.50;99063.78;5050107;28;20013;-38
2021/04/03 09:13:21;;;;;;;8.68;6.00;;;;;;;22.31;38.83;99062.81;5050033;28;20072;-38
2021/04/03 09:15:47;;;;;;;8.52;6.25;;;;;;;22.63;37.68;99047.59;5049525;28;20029;-38
2021/04/03 09:18:13;;;;;;;11.07;6.28;;;;;;;23.63;36.37;99052.34;5029089;28;20142;-38
2021/04/03 09:20:49;;;;;;;10.30;5.45;;;;;;;22.41;38.36;99051.81;5037715;28;20183;-39
2021/04/03 09:23:14;;;;;;;12.75;5.70;;;;;;;22.12;38.68;99049.28;5042336;28;20029;-38
2021/04/03 09:25:40;;;;;;;10.07;5.47;;;;;;;21.97;39.52;99057.66;5033426;28;20135;-38
2021/04/03 09:28:15;;;;;;;10.10;5.40;;;;;;;22.69;36.92;99051.81;5050642;28;20070;-39
2021/04/03 09:30:43;;;;;;;10.85;5.90;;;;;;;22.08;39.14;99045.56;5051687;28;20023;-38
2021/04/03 09:33:15;;;;;;;10.10;5.80;;;;;;;22.14;39.31;99043.56;5051626;28;20109;-38
2021/04/03 09:35:41;;;;;;;10.98;5.75;;;;;;;23.14;37.02;99032.25;5050743;28;20094;-39
2021/04/03 09:38:07;;;;;;;10.65;5.15;;;;;;;23.24;37.09;99034.75;5050319;28;20032;-38
2021/04/03 09:40:41;;;;;;;6.70;4.80;;;;;;;22.83;36.69;99035.56;5050864;28;20352;-38
2021/04/03 09:43:07;;;;;;;10.18;5.10;;;;;;;23.31;36.99;99027.00;5050665;28;20059;-39
2021/04/03 09:45:32;;;;;;;7.38;5.25;;;;;;;24.09;35.88;99021.38;5050973;28;20021;-39
2021/04/03 09:47:58;;;;;;;10.65;5.75;;;;;;;23.53;36.06;99014.56;5050813;28;20032;-38
2021/04/03 09:50:25;;;;;;;8.02;4.70;;;;;;;23.00;37.08;99019.47;5047247;28;20017;-38
2021/04/03 09:52:51;;;;;;;7.95;4.63;;;;;;;24.03;35.85;99006.31;5050757;28;20446;-37
2021/04/03 09:55:16;;;;;;;7.25;5.28;;;;;;;23.75;36.28;99005.63;5050372;28;20048;-38
2021/04/03 09:57:42;;;;;;;7.53;5.38;;;;;;;23.43;37.87;98997.38;5050793;28;20035;-39
2021/04/03 10:00:09;;;;;;;9.88;5.18;;;;;;;23.90;36.66;98999.84;5050170;28;20075;-38
2021/04/03 10:02:35;;;;;;;9.07;5.50;;;;;;;23.88;36.91;98995.84;5050640;28;20013;-39
2021/04/03 10:05:00;;;;;;;10.55;6.40;;;;;;;22.62;40.11;99008.06;5050524;28;20035;-38
2021/04/03 10:07:25;;;;;;;10.85;6.25;;;;;;;22.88;40.49;98994.75;5050183;28;20021;-38
2021/04/03 10:09:51;;;;;;;6.57;5.35;;;;;;;23.32;38.08;98996.03;5049946;28;20017;-39
2021/04/03 10:12:16;;;;;;;8.18;5.70;;;;;;;23.12;38.08;98991.06;5049929;28;20021;-39
2021/04/03 10:14:42;;;;;;;8.07;5.50;;;;;;;22.97;38.88;98979.38;5049527;28;20020;-39
2021/04/03 10:17:07;;;;;;;7.72;5.80;;;;;;;23.00;38.54;98981.50;5049879;28;20063;-39
2021/04/03 10:19:33;;;;;;;9.75;6.20;;;;;;;23.43;37.49;98986.53;5049891;28;20500;-37
2021/04/03 10:21:58;;;;;;;8.55;5.90;;;;;;;23.33;37.60;98978.63;5049651;28;20420;-39
2021/04/03 10:24:24;;;;;;;12.45;5.97;;;;;;;23.61;37.27;98976.63;5049986;28;20029;-38
2021/04/03 10:26:49;;;;;;;9.07;6.07;;;;;;;23.66;38.01;98974.88;5050411;28;20025;-38
2021/04/03 10:29:14;;;;;;;12.85;5.90;;;;;;;23.13;38.76;98968.22;5050621;28;20017;-38
2021/04/03 10:31:40;;;;;;;10.55;6.10;;;;;;;23.28;36.83;98961.66;5050104;28;20024;-38
2021/04/03 10:34:05;;;;;;;8.88;5.60;;;;;;;23.95;35.03;98969.03;5049819;28;20032;-37
2021/04/03 10:36:31;;;;;;;8.40;5.55;;;;;;;24.29;34.74;98962.94;5049241;28;20562;-37
2021/04/03 10:38:56;;;;;;;6.65;4.95;;;;;;;23.55;34.94;98955.31;5049125;28;20457;-38
2021/04/03 10:41:22;;;;;;;8.15;5.55;;;;;;;23.78;35.79;98946.09;5049508;28;20083;-38
2021/04/03 10:43:47;;;;;;;11.55;6.05;;;;;;;24.34;34.39;98957.38;5049569;28;20028;-38
2021/04/03 10:46:13;;;;;;;8.02;5.43;;;;;;;23.67;36.03;98955.56;5048014;28;20021;-38
2021/04/03 10:48:38;;;;;;;6.70;5.05;;;;;;;22.65;37.29;98939.66;5049014;28;20025;-38
2021/04/03 10:51:04;;;;;;;7.15;5.53;;;;;;;22.68;38.31;98949.09;5049753;28;20032;-39
2021/04/03 10:53:30;;;;;;;8.90;5.35;;;;;;;23.24;36.26;98939.75;5049235;28;20020;-39
2021/04/03 10:55:55;;;;;;;7.93;5.20;;;;;;;22.98;36.76;98934.88;5049553;28;20036;-38
2021/04/03 10:58:21;;;;;;;9.07;5.63;;;;;;;23.66;34.86;98931.44;5049572;28;20057;-38
2021/04/03 11:00:46;;;;;;;12.40;5.13;;;;;;;24.57;34.06;98925.50;5049301;28;20096;-38
2021/04/03 11:03:12;;;;;;;8.65;5.47;;;;;;;24.17;33.88;98922.78;5049279;28;20036;-39
2021/04/03 11:05:37;;;;;;;9.38;5.35;;;;;;;24.05;34.12;98922.56;5050071;28;20032;-37
2021/04/03 11:08:05;;;;;;;10.32;5.60;;;;;;;24.51;32.93;98915.88;5049120;28;20385;-38
2021/04/03 11:10:31;;;;;;;9.73;5.95;;;;;;;24.54;33.37;98904.38;5049349;28;20036;-38
2021/04/03 11:12:57;;;;;;;8.45;5.28;;;;;;;25.29;32.52;98900.78;5041075;28;20370;-39
2021/04/03 11:15:22;;;;;;;9.00;4.38;;;;;;;25.43;32.04;98904.13;5041045;28;20127;-37
2021/04/03 11:17:48;;;;;;;6.63;5.05;;;;;;;24.43;33.48;98907.66;5043175;28;20421;-38
2021/04/03 11:20:13;;;;;;;9.07;5.28;;;;;;;24.85;32.98;98895.31;5043284;28;20024;-39
2021/04/03 11:22:40;;;;;;;8.73;4.78;;;;;;;25.87;31.86;98887.69;5040673;28;20039;-39
2021/04/03 11:25:06;;;;;;;8.70;4.63;;;;;;;25.70;31.86;98894.81;5037358;28;20032;-52
2021/04/03 11:27:32;;;;;;;7.72;5.00;;;;;;;25.23;32.36;98880.31;5038775;28;20066;-50